Terminal Aerodrome Forecast
Issued by NWS Huntsville, AL

Home | Current Version | Previous Version | Text Only | Print | Product List | Glossary On
Versions: 1 2 3 4 5 6 7 8 9 10 11 12
000
FTUS44 KHUN 261125
TAFMSL
TAF
KMSL 261125Z 2612/2712 VRB03KT P6SM FEW040 SCT250
      TEMPO 2612/2613 4SM BR
     FM261800 09005KT P6SM VCTS BKN035CB BKN100
     FM270200 VRB03KT P6SM SCT050 SCT250=

USA.gov is the U.S. government's official web portal to all federal, state and local government web resources and services.